Bluffton, South Carolina
Current Conditions -  °F | °C
As of 7:50 AM on Wednesday 26 Nov 2014 (Local Time) from KHXD Reporting Station
Drizzle Drizzle  
Wind Chill: 11°   Ceiling: 800
Heat Index: 11°   Visibility: 5mi
Dew Point: 11°   Wind: 12mph
Humidity: 100%   Direction: 330°NNW
Pressure: 29.95"   Gusts: 21mph
Location:  32.24°N, 80.86°W
Report Text: KHXD 261250Z 33010G18KT 5SM DZ OVC008 11/11 A2995
Loading
Personal Weather Stations






























Interactive Weather Map New forecast layout! Learn more

10-Day Weather Forecast

Advertisements
Track Severe Weather on mobile